sensor_id;sensor_type;location;lat;lon;timestamp;P1;durP1;ratioP1;P2;durP2;ratioP2
63492;SDS011;49638;47.526;10.028;2023-08-06T00:00:37;3.30;;;2.75;;
63492;SDS011;49638;47.526;10.028;2023-08-06T00:03:37;4.22;;;3.00;;
63492;SDS011;49638;47.526;10.028;2023-08-06T00:06:37;3.35;;;2.78;;
63492;SDS011;49638;47.526;10.028;2023-08-06T00:09:38;3.90;;;3.22;;
63492;SDS011;49638;47.526;10.028;2023-08-06T00:12:38;4.13;;;3.83;;
63492;SDS011;49638;47.526;10.028;2023-08-06T00:15:38;4.20;;;3.42;;
63492;SDS011;49638;47.526;10.028;2023-08-06T00:18:39;3.47;;;3.17;;
63492;SDS011;49638;47.526;10.028;2023-08-06T00:21:39;5.18;;;3.05;;
63492;SDS011;49638;47.526;10.028;2023-08-06T00:24:40;3.70;;;3.28;;
63492;SDS011;49638;47.526;10.028;2023-08-06T00:27:40;5.35;;;3.13;;
63492;SDS011;49638;47.526;10.028;2023-08-06T00:30:40;3.65;;;3.15;;
63492;SDS011;49638;47.526;10.028;2023-08-06T00:33:40;6.53;;;3.22;;
63492;SDS011;49638;47.526;10.028;2023-08-06T00:36:41;4.82;;;3.10;;
63492;SDS011;49638;47.526;10.028;2023-08-06T00:39:41;4.07;;;3.13;;
63492;SDS011;49638;47.526;10.028;2023-08-06T00:42:41;4.30;;;3.65;;
63492;SDS011;49638;47.526;10.028;2023-08-06T00:45:42;4.30;;;3.60;;
63492;SDS011;49638;47.526;10.028;2023-08-06T00:48:43;3.92;;;3.15;;
63492;SDS011;49638;47.526;10.028;2023-08-06T00:51:43;4.63;;;3.53;;
63492;SDS011;49638;47.526;10.028;2023-08-06T00:54:44;4.25;;;3.00;;
63492;SDS011;49638;47.526;10.028;2023-08-06T00:57:44;5.25;;;3.58;;
63492;SDS011;49638;47.526;10.028;2023-08-06T01:00:44;4.25;;;3.45;;
63492;SDS011;49638;47.526;10.028;2023-08-06T01:03:46;4.32;;;3.47;;
63492;SDS011;49638;47.526;10.028;2023-08-06T01:06:52;4.93;;;3.60;;
63492;SDS011;49638;47.526;10.028;2023-08-06T01:16:23;5.70;;;3.60;;
63492;SDS011;49638;47.526;10.028;2023-08-06T01:19:24;4.35;;;3.70;;
63492;SDS011;49638;47.526;10.028;2023-08-06T01:22:24;6.13;;;3.60;;
63492;SDS011;49638;47.526;10.028;2023-08-06T01:25:27;4.25;;;2.90;;
63492;SDS011;49638;47.526;10.028;2023-08-06T01:28:36;3.85;;;2.83;;
63492;SDS011;49638;47.526;10.028;2023-08-06T01:31:44;3.83;;;3.15;;
63492;SDS011;49638;47.526;10.028;2023-08-06T01:34:48;3.38;;;2.92;;
63492;SDS011;49638;47.526;10.028;2023-08-06T01:37:50;4.72;;;3.03;;
63492;SDS011;49638;47.526;10.028;2023-08-06T01:40:51;3.50;;;2.88;;
63492;SDS011;49638;47.526;10.028;2023-08-06T01:43:51;4.95;;;2.90;;
63492;SDS011;49638;47.526;10.028;2023-08-06T01:46:51;2.13;;;1.90;;
63492;SDS011;49638;47.526;10.028;2023-08-06T01:49:51;4.45;;;2.08;;
63492;SDS011;49638;47.526;10.028;2023-08-06T01:52:52;3.30;;;1.95;;
63492;SDS011;49638;47.526;10.028;2023-08-06T01:55:52;2.15;;;1.88;;
63492;SDS011;49638;47.526;10.028;2023-08-06T01:58:52;2.47;;;1.90;;
63492;SDS011;49638;47.526;10.028;2023-08-06T02:01:52;2.88;;;1.70;;
63492;SDS011;49638;47.526;10.028;2023-08-06T02:04:53;3.92;;;1.73;;
63492;SDS011;49638;47.526;10.028;2023-08-06T02:07:53;2.88;;;1.70;;
63492;SDS011;49638;47.526;10.028;2023-08-06T02:10:53;2.30;;;2.08;;
63492;SDS011;49638;47.526;10.028;2023-08-06T02:13:54;2.67;;;1.75;;
63492;SDS011;49638;47.526;10.028;2023-08-06T02:16:54;2.88;;;1.80;;
63492;SDS011;49638;47.526;10.028;2023-08-06T02:19:54;1.85;;;1.70;;
63492;SDS011;49638;47.526;10.028;2023-08-06T02:22:55;2.35;;;1.50;;
63492;SDS011;49638;47.526;10.028;2023-08-06T02:26:01;2.55;;;2.08;;
63492;SDS011;49638;47.526;10.028;2023-08-06T02:29:03;2.25;;;2.05;;
63492;SDS011;49638;47.526;10.028;2023-08-06T02:32:03;3.97;;;2.17;;
63492;SDS011;49638;47.526;10.028;2023-08-06T02:35:04;3.35;;;2.20;;
63492;SDS011;49638;47.526;10.028;2023-08-06T02:38:05;2.47;;;2.20;;
63492;SDS011;49638;47.526;10.028;2023-08-06T02:41:05;2.35;;;2.15;;
63492;SDS011;49638;47.526;10.028;2023-08-06T02:44:05;3.55;;;2.40;;
63492;SDS011;49638;47.526;10.028;2023-08-06T02:47:05;3.97;;;2.38;;
63492;SDS011;49638;47.526;10.028;2023-08-06T02:50:06;3.03;;;2.58;;
63492;SDS011;49638;47.526;10.028;2023-08-06T02:53:07;3.60;;;2.15;;
63492;SDS011;49638;47.526;10.028;2023-08-06T02:56:07;3.97;;;2.35;;
63492;SDS011;49638;47.526;10.028;2023-08-06T02:59:08;2.75;;;2.25;;
63492;SDS011;49638;47.526;10.028;2023-08-06T03:02:08;4.28;;;2.35;;
63492;SDS011;49638;47.526;10.028;2023-08-06T03:05:08;3.42;;;2.40;;
63492;SDS011;49638;47.526;10.028;2023-08-06T03:08:09;3.13;;;2.38;;
63492;SDS011;49638;47.526;10.028;2023-08-06T03:11:09;3.40;;;2.38;;
63492;SDS011;49638;47.526;10.028;2023-08-06T03:14:09;3.53;;;2.25;;
63492;SDS011;49638;47.526;10.028;2023-08-06T03:17:09;3.88;;;1.80;;
63492;SDS011;49638;47.526;10.028;2023-08-06T03:20:10;3.17;;;1.92;;
63492;SDS011;49638;47.526;10.028;2023-08-06T03:23:10;2.38;;;2.03;;
63492;SDS011;49638;47.526;10.028;2023-08-06T03:26:30;2.42;;;1.90;;
63492;SDS011;49638;47.526;10.028;2023-08-06T03:29:30;3.00;;;2.00;;
63492;SDS011;49638;47.526;10.028;2023-08-06T03:32:31;2.72;;;1.80;;
63492;SDS011;49638;47.526;10.028;2023-08-06T03:35:31;3.78;;;2.22;;
63492;SDS011;49638;47.526;10.028;2023-08-06T03:38:31;3.65;;;2.05;;
63492;SDS011;49638;47.526;10.028;2023-08-06T03:41:31;3.08;;;2.17;;
63492;SDS011;49638;47.526;10.028;2023-08-06T03:44:32;1.80;;;1.58;;
63492;SDS011;49638;47.526;10.028;2023-08-06T03:47:32;2.40;;;1.52;;
63492;SDS011;49638;47.526;10.028;2023-08-06T03:50:32;2.17;;;1.75;;
63492;SDS011;49638;47.526;10.028;2023-08-06T03:53:33;1.65;;;1.55;;
63492;SDS011;49638;47.526;10.028;2023-08-06T03:56:34;1.52;;;1.35;;
63492;SDS011;49638;47.526;10.028;2023-08-06T03:59:34;1.63;;;1.52;;
63492;SDS011;49638;47.526;10.028;2023-08-06T04:02:34;2.05;;;1.30;;
63492;SDS011;49638;47.526;10.028;2023-08-06T04:05:35;1.95;;;1.48;;
63492;SDS011;49638;47.526;10.028;2023-08-06T04:08:35;1.83;;;1.40;;
63492;SDS011;49638;47.526;10.028;2023-08-06T04:11:35;2.53;;;1.60;;
63492;SDS011;49638;47.526;10.028;2023-08-06T04:14:35;2.65;;;1.70;;
63492;SDS011;49638;47.526;10.028;2023-08-06T04:17:36;1.60;;;1.50;;
63492;SDS011;49638;47.526;10.028;2023-08-06T04:20:46;2.22;;;1.40;;
63492;SDS011;49638;47.526;10.028;2023-08-06T04:23:49;2.72;;;1.58;;
63492;SDS011;49638;47.526;10.028;2023-08-06T04:26:49;2.88;;;1.58;;
63492;SDS011;49638;47.526;10.028;2023-08-06T04:29:49;1.70;;;1.33;;
63492;SDS011;49638;47.526;10.028;2023-08-06T04:32:50;1.60;;;1.40;;
63492;SDS011;49638;47.526;10.028;2023-08-06T04:35:54;2.40;;;1.48;;
63492;SDS011;49638;47.526;10.028;2023-08-06T04:38:55;2.13;;;1.50;;
63492;SDS011;49638;47.526;10.028;2023-08-06T04:41:56;2.08;;;1.50;;
63492;SDS011;49638;47.526;10.028;2023-08-06T04:45:00;3.45;;;1.70;;
63492;SDS011;49638;47.526;10.028;2023-08-06T04:48:01;1.70;;;1.50;;
63492;SDS011;49638;47.526;10.028;2023-08-06T04:51:01;2.65;;;1.15;;
63492;SDS011;49638;47.526;10.028;2023-08-06T04:54:02;2.90;;;1.40;;
63492;SDS011;49638;47.526;10.028;2023-08-06T04:57:02;3.20;;;1.60;;
63492;SDS011;49638;47.526;10.028;2023-08-06T05:00:03;3.35;;;1.50;;
63492;SDS011;49638;47.526;10.028;2023-08-06T05:03:05;1.52;;;1.35;;
63492;SDS011;49638;47.526;10.028;2023-08-06T05:06:05;4.03;;;1.40;;
63492;SDS011;49638;47.526;10.028;2023-08-06T05:09:06;1.60;;;1.38;;
63492;SDS011;49638;47.526;10.028;2023-08-06T05:12:06;2.15;;;1.40;;
63492;SDS011;49638;47.526;10.028;2023-08-06T05:15:07;2.17;;;1.30;;
63492;SDS011;49638;47.526;10.028;2023-08-06T05:18:08;2.22;;;1.50;;
63492;SDS011;49638;47.526;10.028;2023-08-06T05:21:08;2.28;;;1.30;;
63492;SDS011;49638;47.526;10.028;2023-08-06T05:24:09;2.20;;;1.50;;
63492;SDS011;49638;47.526;10.028;2023-08-06T05:27:09;1.70;;;1.30;;
63492;SDS011;49638;47.526;10.028;2023-08-06T05:30:09;2.40;;;1.20;;
63492;SDS011;49638;47.526;10.028;2023-08-06T05:33:10;2.67;;;1.30;;
63492;SDS011;49638;47.526;10.028;2023-08-06T05:36:10;3.83;;;1.25;;
63492;SDS011;49638;47.526;10.028;2023-08-06T05:39:11;2.22;;;1.70;;
63492;SDS011;49638;47.526;10.028;2023-08-06T05:42:11;2.35;;;1.42;;
63492;SDS011;49638;47.526;10.028;2023-08-06T05:45:11;2.58;;;1.58;;
63492;SDS011;49638;47.526;10.028;2023-08-06T05:48:11;2.22;;;1.30;;
63492;SDS011;49638;47.526;10.028;2023-08-06T05:51:12;2.50;;;1.50;;
63492;SDS011;49638;47.526;10.028;2023-08-06T05:54:13;2.20;;;1.23;;
63492;SDS011;49638;47.526;10.028;2023-08-06T05:57:13;3.30;;;1.27;;
63492;SDS011;49638;47.526;10.028;2023-08-06T06:00:13;1.65;;;1.23;;
63492;SDS011;49638;47.526;10.028;2023-08-06T06:03:14;2.35;;;1.30;;
63492;SDS011;49638;47.526;10.028;2023-08-06T06:06:14;2.92;;;1.55;;
63492;SDS011;49638;47.526;10.028;2023-08-06T06:09:14;3.50;;;1.77;;
63492;SDS011;49638;47.526;10.028;2023-08-06T06:12:15;4.60;;;1.20;;
63492;SDS011;49638;47.526;10.028;2023-08-06T06:15:15;1.95;;;1.30;;
63492;SDS011;49638;47.526;10.028;2023-08-06T06:18:15;1.30;;;0.90;;
63492;SDS011;49638;47.526;10.028;2023-08-06T06:21:16;2.50;;;1.00;;
63492;SDS011;49638;47.526;10.028;2023-08-06T06:24:16;1.52;;;0.70;;
63492;SDS011;49638;47.526;10.028;2023-08-06T06:27:16;1.58;;;0.80;;
63492;SDS011;49638;47.526;10.028;2023-08-06T06:30:17;1.98;;;0.50;;
63492;SDS011;49638;47.526;10.028;2023-08-06T06:33:17;1.50;;;0.57;;
63492;SDS011;49638;47.526;10.028;2023-08-06T06:36:17;0.57;;;0.52;;
63492;SDS011;49638;47.526;10.028;2023-08-06T06:39:18;1.00;;;0.57;;
63492;SDS011;49638;47.526;10.028;2023-08-06T06:42:18;0.77;;;0.35;;
63492;SDS011;49638;47.526;10.028;2023-08-06T06:45:18;1.05;;;0.75;;
63492;SDS011;49638;47.526;10.028;2023-08-06T06:48:18;1.27;;;0.60;;
63492;SDS011;49638;47.526;10.028;2023-08-06T06:51:19;2.88;;;0.52;;
63492;SDS011;49638;47.526;10.028;2023-08-06T06:54:19;2.15;;;0.50;;
63492;SDS011;49638;47.526;10.028;2023-08-06T06:57:19;1.02;;;0.90;;
63492;SDS011;49638;47.526;10.028;2023-08-06T07:00:20;0.82;;;0.50;;
63492;SDS011;49638;47.526;10.028;2023-08-06T07:03:20;1.15;;;0.60;;
63492;SDS011;49638;47.526;10.028;2023-08-06T07:06:20;0.82;;;0.43;;
63492;SDS011;49638;47.526;10.028;2023-08-06T07:09:20;1.08;;;0.52;;
63492;SDS011;49638;47.526;10.028;2023-08-06T07:12:21;1.20;;;0.55;;
63492;SDS011;49638;47.526;10.028;2023-08-06T07:15:21;28.77;;;9.95;;
63492;SDS011;49638;47.526;10.028;2023-08-06T07:18:22;3.40;;;1.55;;
63492;SDS011;49638;47.526;10.028;2023-08-06T07:21:22;0.90;;;0.60;;
63492;SDS011;49638;47.526;10.028;2023-08-06T07:24:23;0.60;;;0.60;;
63492;SDS011;49638;47.526;10.028;2023-08-06T07:27:23;0.93;;;0.43;;
63492;SDS011;49638;47.526;10.028;2023-08-06T07:30:25;3.47;;;2.40;;
63492;SDS011;49638;47.526;10.028;2023-08-06T07:33:25;1.30;;;1.02;;
63492;SDS011;49638;47.526;10.028;2023-08-06T07:36:25;2.25;;;0.70;;
63492;SDS011;49638;47.526;10.028;2023-08-06T07:39:25;0.30;;;0.30;;
63492;SDS011;49638;47.526;10.028;2023-08-06T07:42:28;0.40;;;0.40;;
63492;SDS011;49638;47.526;10.028;2023-08-06T07:45:32;2.83;;;0.55;;
63492;SDS011;49638;47.526;10.028;2023-08-06T07:48:33;1.25;;;1.15;;
63492;SDS011;49638;47.526;10.028;2023-08-06T07:51:33;1.65;;;0.45;;
63492;SDS011;49638;47.526;10.028;2023-08-06T07:54:33;0.70;;;0.50;;
63492;SDS011;49638;47.526;10.028;2023-08-06T07:57:33;2.50;;;0.60;;
63492;SDS011;49638;47.526;10.028;2023-08-06T08:00:34;0.85;;;0.50;;
63492;SDS011;49638;47.526;10.028;2023-08-06T08:03:34;0.70;;;0.60;;
63492;SDS011;49638;47.526;10.028;2023-08-06T08:06:34;0.88;;;0.50;;
63492;SDS011;49638;47.526;10.028;2023-08-06T08:09:35;0.70;;;0.50;;
63492;SDS011;49638;47.526;10.028;2023-08-06T08:12:36;0.47;;;0.47;;
63492;SDS011;49638;47.526;10.028;2023-08-06T08:15:36;8.55;;;6.30;;
63492;SDS011;49638;47.526;10.028;2023-08-06T08:18:36;2.63;;;2.15;;
63492;SDS011;49638;47.526;10.028;2023-08-06T08:21:37;7.93;;;5.47;;
63492;SDS011;49638;47.526;10.028;2023-08-06T08:24:37;5.80;;;4.97;;
63492;SDS011;49638;47.526;10.028;2023-08-06T08:27:37;7.32;;;4.90;;
63492;SDS011;49638;47.526;10.028;2023-08-06T08:30:37;1.88;;;1.10;;
63492;SDS011;49638;47.526;10.028;2023-08-06T08:33:40;6.30;;;4.33;;
63492;SDS011;49638;47.526;10.028;2023-08-06T08:36:41;3.60;;;2.10;;
63492;SDS011;49638;47.526;10.028;2023-08-06T08:39:41;5.75;;;1.80;;
63492;SDS011;49638;47.526;10.028;2023-08-06T08:42:41;2.35;;;1.30;;
63492;SDS011;49638;47.526;10.028;2023-08-06T08:45:42;3.25;;;1.58;;
63492;SDS011;49638;47.526;10.028;2023-08-06T08:48:45;1.83;;;1.02;;
63492;SDS011;49638;47.526;10.028;2023-08-06T08:51:45;2.65;;;0.95;;
63492;SDS011;49638;47.526;10.028;2023-08-06T08:54:46;4.60;;;2.10;;
63492;SDS011;49638;47.526;10.028;2023-08-06T08:57:51;1.42;;;0.90;;
63492;SDS011;49638;47.526;10.028;2023-08-06T09:00:51;2.83;;;0.90;;
63492;SDS011;49638;47.526;10.028;2023-08-06T09:03:53;2.70;;;2.08;;
63492;SDS011;49638;47.526;10.028;2023-08-06T09:06:54;2.35;;;1.75;;
63492;SDS011;49638;47.526;10.028;2023-08-06T09:09:58;3.80;;;0.77;;
63492;SDS011;49638;47.526;10.028;2023-08-06T09:13:01;2.42;;;0.77;;
63492;SDS011;49638;47.526;10.028;2023-08-06T09:16:03;2.72;;;0.73;;
63492;SDS011;49638;47.526;10.028;2023-08-06T09:19:13;1.08;;;0.80;;
63492;SDS011;49638;47.526;10.028;2023-08-06T09:22:17;1.40;;;0.80;;
63492;SDS011;49638;47.526;10.028;2023-08-06T09:25:24;1.40;;;0.70;;
63492;SDS011;49638;47.526;10.028;2023-08-06T09:28:36;0.63;;;0.40;;
63492;SDS011;49638;47.526;10.028;2023-08-06T09:34:42;2.00;;;0.50;;
63492;SDS011;49638;47.526;10.028;2023-08-06T09:37:43;1.85;;;0.40;;
63492;SDS011;49638;47.526;10.028;2023-08-06T09:40:44;0.50;;;0.50;;
63492;SDS011;49638;47.526;10.028;2023-08-06T09:43:44;0.40;;;0.40;;
63492;SDS011;49638;47.526;10.028;2023-08-06T09:46:48;32.38;;;14.43;;
63492;SDS011;49638;47.526;10.028;2023-08-06T09:49:52;139.20;;;69.63;;
63492;SDS011;49638;47.526;10.028;2023-08-06T09:52:52;89.05;;;44.42;;
63492;SDS011;49638;47.526;10.028;2023-08-06T09:55:53;56.75;;;25.13;;
63492;SDS011;49638;47.526;10.028;2023-08-06T09:58:54;142.15;;;61.25;;
63492;SDS011;49638;47.526;10.028;2023-08-06T10:01:55;34.28;;;18.80;;
63492;SDS011;49638;47.526;10.028;2023-08-06T10:04:56;3.15;;;2.85;;
63492;SDS011;49638;47.526;10.028;2023-08-06T10:07:57;2.53;;;0.98;;
63492;SDS011;49638;47.526;10.028;2023-08-06T10:11:00;0.90;;;0.65;;
63492;SDS011;49638;47.526;10.028;2023-08-06T10:14:08;2.08;;;0.57;;
63492;SDS011;49638;47.526;10.028;2023-08-06T10:17:11;2.08;;;1.98;;
63492;SDS011;49638;47.526;10.028;2023-08-06T10:20:12;0.40;;;0.40;;
63492;SDS011;49638;47.526;10.028;2023-08-06T10:23:12;1.40;;;1.00;;
63492;SDS011;49638;47.526;10.028;2023-08-06T10:26:14;0.63;;;0.60;;
63492;SDS011;49638;47.526;10.028;2023-08-06T10:29:35;0.50;;;0.50;;
63492;SDS011;49638;47.526;10.028;2023-08-06T10:32:49;0.30;;;0.20;;
63492;SDS011;49638;47.526;10.028;2023-08-06T10:35:50;0.50;;;0.35;;
63492;SDS011;49638;47.526;10.028;2023-08-06T10:38:53;0.60;;;0.60;;
63492;SDS011;49638;47.526;10.028;2023-08-06T10:41:57;0.30;;;0.10;;
63492;SDS011;49638;47.526;10.028;2023-08-06T10:51:54;0.70;;;0.10;;
63492;SDS011;49638;47.526;10.028;2023-08-06T10:54:54;0.30;;;0.20;;
63492;SDS011;49638;47.526;10.028;2023-08-06T10:57:55;0.50;;;0.20;;
63492;SDS011;49638;47.526;10.028;2023-08-06T11:00:56;1.65;;;0.30;;
63492;SDS011;49638;47.526;10.028;2023-08-06T11:04:00;0.22;;;0.20;;
63492;SDS011;49638;47.526;10.028;2023-08-06T11:07:02;0.20;;;0.20;;
63492;SDS011;49638;47.526;10.028;2023-08-06T11:10:06;0.22;;;0.20;;
63492;SDS011;49638;47.526;10.028;2023-08-06T11:13:10;8.88;;;4.25;;
63492;SDS011;49638;47.526;10.028;2023-08-06T11:16:10;0.40;;;0.40;;
63492;SDS011;49638;47.526;10.028;2023-08-06T11:19:10;2.22;;;1.95;;
63492;SDS011;49638;47.526;10.028;2023-08-06T11:22:11;2.47;;;1.83;;
63492;SDS011;49638;47.526;10.028;2023-08-06T11:25:11;1.92;;;1.75;;
63492;SDS011;49638;47.526;10.028;2023-08-06T11:28:11;0.60;;;0.60;;
63492;SDS011;49638;47.526;10.028;2023-08-06T11:31:19;2.15;;;1.70;;
63492;SDS011;49638;47.526;10.028;2023-08-06T11:34:20;0.98;;;0.80;;
63492;SDS011;49638;47.526;10.028;2023-08-06T11:37:21;3.22;;;1.60;;
63492;SDS011;49638;47.526;10.028;2023-08-06T11:40:22;2.00;;;1.60;;
63492;SDS011;49638;47.526;10.028;2023-08-06T11:43:23;0.73;;;0.73;;
63492;SDS011;49638;47.526;10.028;2023-08-06T11:46:23;1.40;;;0.90;;
63492;SDS011;49638;47.526;10.028;2023-08-06T11:52:47;7.75;;;5.82;;
63492;SDS011;49638;47.526;10.028;2023-08-06T11:55:48;6.28;;;4.20;;
63492;SDS011;49638;47.526;10.028;2023-08-06T11:58:49;0.60;;;0.60;;
63492;SDS011;49638;47.526;10.028;2023-08-06T12:01:49;1.88;;;1.67;;
63492;SDS011;49638;47.526;10.028;2023-08-06T12:08:04;1.08;;;1.08;;
63492;SDS011;49638;47.526;10.028;2023-08-06T12:11:04;1.60;;;0.40;;
63492;SDS011;49638;47.526;10.028;2023-08-06T12:14:05;0.60;;;0.60;;
63492;SDS011;49638;47.526;10.028;2023-08-06T12:17:05;0.60;;;0.60;;
63492;SDS011;49638;47.526;10.028;2023-08-06T12:20:06;0.63;;;0.63;;
63492;SDS011;49638;47.526;10.028;2023-08-06T12:23:07;0.57;;;0.50;;
63492;SDS011;49638;47.526;10.028;2023-08-06T12:26:08;0.60;;;0.60;;
63492;SDS011;49638;47.526;10.028;2023-08-06T12:29:08;0.30;;;0.30;;
63492;SDS011;49638;47.526;10.028;2023-08-06T12:32:09;0.77;;;0.30;;
63492;SDS011;49638;47.526;10.028;2023-08-06T12:35:10;0.20;;;0.20;;
63492;SDS011;49638;47.526;10.028;2023-08-06T12:38:10;1.05;;;0.30;;
63492;SDS011;49638;47.526;10.028;2023-08-06T12:41:10;0.68;;;0.38;;
63492;SDS011;49638;47.526;10.028;2023-08-06T12:44:10;0.35;;;0.35;;
63492;SDS011;49638;47.526;10.028;2023-08-06T12:47:10;0.20;;;0.20;;
63492;SDS011;49638;47.526;10.028;2023-08-06T12:50:11;1.10;;;0.20;;
63492;SDS011;49638;47.526;10.028;2023-08-06T12:53:11;0.25;;;0.20;;
63492;SDS011;49638;47.526;10.028;2023-08-06T12:56:11;0.15;;;0.10;;
63492;SDS011;49638;47.526;10.028;2023-08-06T12:59:13;0.20;;;0.10;;
63492;SDS011;49638;47.526;10.028;2023-08-06T13:02:14;0.10;;;0.10;;
63492;SDS011;49638;47.526;10.028;2023-08-06T13:05:14;0.20;;;0.20;;
63492;SDS011;49638;47.526;10.028;2023-08-06T13:08:14;0.20;;;0.20;;
63492;SDS011;49638;47.526;10.028;2023-08-06T13:11:15;0.25;;;0.10;;
63492;SDS011;49638;47.526;10.028;2023-08-06T13:14:15;0.77;;;0.20;;
63492;SDS011;49638;47.526;10.028;2023-08-06T13:17:15;0.45;;;0.30;;
63492;SDS011;49638;47.526;10.028;2023-08-06T13:20:16;0.20;;;0.20;;
63492;SDS011;49638;47.526;10.028;2023-08-06T13:23:16;0.20;;;0.20;;
63492;SDS011;49638;47.526;10.028;2023-08-06T13:26:17;0.57;;;0.30;;
63492;SDS011;49638;47.526;10.028;2023-08-06T13:29:17;0.40;;;0.40;;
63492;SDS011;49638;47.526;10.028;2023-08-06T13:32:18;0.35;;;0.30;;
63492;SDS011;49638;47.526;10.028;2023-08-06T13:35:18;0.30;;;0.20;;
63492;SDS011;49638;47.526;10.028;2023-08-06T13:38:18;0.20;;;0.20;;
63492;SDS011;49638;47.526;10.028;2023-08-06T13:41:18;0.40;;;0.40;;
63492;SDS011;49638;47.526;10.028;2023-08-06T13:44:19;8.77;;;5.82;;
63492;SDS011;49638;47.526;10.028;2023-08-06T13:47:19;0.50;;;0.50;;
63492;SDS011;49638;47.526;10.028;2023-08-06T13:50:19;13.68;;;12.05;;
63492;SDS011;49638;47.526;10.028;2023-08-06T13:53:22;1.00;;;0.85;;
63492;SDS011;49638;47.526;10.028;2023-08-06T13:56:22;2.50;;;2.20;;
63492;SDS011;49638;47.526;10.028;2023-08-06T13:59:22;0.60;;;0.60;;
63492;SDS011;49638;47.526;10.028;2023-08-06T14:02:24;11.07;;;9.27;;
63492;SDS011;49638;47.526;10.028;2023-08-06T14:05:25;0.90;;;0.90;;
63492;SDS011;49638;47.526;10.028;2023-08-06T14:08:25;0.57;;;0.57;;
63492;SDS011;49638;47.526;10.028;2023-08-06T14:11:25;1.85;;;1.15;;
63492;SDS011;49638;47.526;10.028;2023-08-06T14:14:26;0.63;;;0.40;;
63492;SDS011;49638;47.526;10.028;2023-08-06T14:17:27;0.88;;;0.88;;
63492;SDS011;49638;47.526;10.028;2023-08-06T14:20:27;2.50;;;1.65;;
63492;SDS011;49638;47.526;10.028;2023-08-06T14:23:27;0.50;;;0.50;;
63492;SDS011;49638;47.526;10.028;2023-08-06T14:26:28;3.17;;;2.00;;
63492;SDS011;49638;47.526;10.028;2023-08-06T14:29:28;1.10;;;1.05;;
63492;SDS011;49638;47.526;10.028;2023-08-06T14:32:28;1.67;;;1.58;;
63492;SDS011;49638;47.526;10.028;2023-08-06T14:35:29;0.30;;;0.30;;
63492;SDS011;49638;47.526;10.028;2023-08-06T14:38:29;0.50;;;0.35;;
63492;SDS011;49638;47.526;10.028;2023-08-06T14:41:29;3.45;;;2.45;;
63492;SDS011;49638;47.526;10.028;2023-08-06T14:44:30;7.47;;;4.95;;
63492;SDS011;49638;47.526;10.028;2023-08-06T14:47:30;1.52;;;1.08;;
63492;SDS011;49638;47.526;10.028;2023-08-06T14:50:30;0.70;;;0.70;;
63492;SDS011;49638;47.526;10.028;2023-08-06T14:53:31;11.57;;;9.77;;
63492;SDS011;49638;47.526;10.028;2023-08-06T14:56:31;47.13;;;28.17;;
63492;SDS011;49638;47.526;10.028;2023-08-06T14:59:31;3.67;;;2.78;;
63492;SDS011;49638;47.526;10.028;2023-08-06T15:02:32;4.85;;;3.10;;
63492;SDS011;49638;47.526;10.028;2023-08-06T15:05:33;14.93;;;12.95;;
63492;SDS011;49638;47.526;10.028;2023-08-06T15:08:33;2.80;;;2.55;;
63492;SDS011;49638;47.526;10.028;2023-08-06T15:11:33;6.00;;;0.82;;
63492;SDS011;49638;47.526;10.028;2023-08-06T15:14:33;1.98;;;0.60;;
63492;SDS011;49638;47.526;10.028;2023-08-06T15:17:34;2.85;;;2.55;;
63492;SDS011;49638;47.526;10.028;2023-08-06T15:20:34;1.40;;;1.30;;
63492;SDS011;49638;47.526;10.028;2023-08-06T15:23:34;3.22;;;2.40;;
63492;SDS011;49638;47.526;10.028;2023-08-06T15:26:35;4.22;;;3.35;;
63492;SDS011;49638;47.526;10.028;2023-08-06T15:29:35;0.65;;;0.65;;
63492;SDS011;49638;47.526;10.028;2023-08-06T15:32:35;0.80;;;0.80;;
63492;SDS011;49638;47.526;10.028;2023-08-06T15:35:36;1.45;;;0.77;;
63492;SDS011;49638;47.526;10.028;2023-08-06T15:38:36;1.00;;;1.00;;
63492;SDS011;49638;47.526;10.028;2023-08-06T15:41:36;0.70;;;0.70;;
63492;SDS011;49638;47.526;10.028;2023-08-06T15:44:36;3.92;;;0.70;;
63492;SDS011;49638;47.526;10.028;2023-08-06T15:47:37;1.60;;;1.50;;
63492;SDS011;49638;47.526;10.028;2023-08-06T15:50:40;1.27;;;0.88;;
63492;SDS011;49638;47.526;10.028;2023-08-06T15:53:40;1.25;;;1.15;;
63492;SDS011;49638;47.526;10.028;2023-08-06T15:56:40;0.70;;;0.70;;
63492;SDS011;49638;47.526;10.028;2023-08-06T15:59:41;2.55;;;1.20;;
63492;SDS011;49638;47.526;10.028;2023-08-06T16:02:41;0.80;;;0.80;;
63492;SDS011;49638;47.526;10.028;2023-08-06T16:05:41;2.35;;;1.10;;
63492;SDS011;49638;47.526;10.028;2023-08-06T16:08:43;2.80;;;2.60;;
63492;SDS011;49638;47.526;10.028;2023-08-06T16:11:43;3.53;;;3.22;;
63492;SDS011;49638;47.526;10.028;2023-08-06T16:14:44;5.32;;;4.18;;
63492;SDS011;49638;47.526;10.028;2023-08-06T16:17:48;0.90;;;0.90;;
63492;SDS011;49638;47.526;10.028;2023-08-06T16:20:48;1.42;;;1.30;;
63492;SDS011;49638;47.526;10.028;2023-08-06T16:23:48;1.60;;;0.90;;
63492;SDS011;49638;47.526;10.028;2023-08-06T16:26:49;4.32;;;3.47;;
63492;SDS011;49638;47.526;10.028;2023-08-06T16:29:50;5.10;;;4.13;;
63492;SDS011;49638;47.526;10.028;2023-08-06T16:32:50;1.58;;;1.10;;
63492;SDS011;49638;47.526;10.028;2023-08-06T16:35:51;3.22;;;2.15;;
63492;SDS011;49638;47.526;10.028;2023-08-06T16:38:52;9.32;;;5.47;;
63492;SDS011;49638;47.526;10.028;2023-08-06T16:41:52;4.70;;;1.88;;
63492;SDS011;49638;47.526;10.028;2023-08-06T16:44:53;6.15;;;4.35;;
63492;SDS011;49638;47.526;10.028;2023-08-06T16:47:53;12.18;;;7.18;;
63492;SDS011;49638;47.526;10.028;2023-08-06T16:50:54;2.95;;;2.65;;
63492;SDS011;49638;47.526;10.028;2023-08-06T16:53:54;1.13;;;1.02;;
63492;SDS011;49638;47.526;10.028;2023-08-06T16:56:55;0.90;;;0.90;;
63492;SDS011;49638;47.526;10.028;2023-08-06T16:59:56;3.60;;;3.28;;
63492;SDS011;49638;47.526;10.028;2023-08-06T17:02:56;1.30;;;1.20;;
63492;SDS011;49638;47.526;10.028;2023-08-06T17:05:57;4.40;;;2.38;;
63492;SDS011;49638;47.526;10.028;2023-08-06T17:08:58;2.05;;;1.10;;
63492;SDS011;49638;47.526;10.028;2023-08-06T17:11:59;1.10;;;1.00;;
63492;SDS011;49638;47.526;10.028;2023-08-06T17:14:59;1.30;;;1.20;;
63492;SDS011;49638;47.526;10.028;2023-08-06T17:18:00;1.20;;;1.10;;
63492;SDS011;49638;47.526;10.028;2023-08-06T17:21:00;2.65;;;1.20;;
63492;SDS011;49638;47.526;10.028;2023-08-06T17:24:01;2.45;;;1.23;;
63492;SDS011;49638;47.526;10.028;2023-08-06T17:27:01;1.48;;;1.20;;
63492;SDS011;49638;47.526;10.028;2023-08-06T17:30:01;1.27;;;1.00;;
63492;SDS011;49638;47.526;10.028;2023-08-06T17:33:02;2.03;;;1.38;;
63492;SDS011;49638;47.526;10.028;2023-08-06T17:36:02;1.55;;;1.45;;
63492;SDS011;49638;47.526;10.028;2023-08-06T17:39:03;1.88;;;1.25;;
63492;SDS011;49638;47.526;10.028;2023-08-06T17:42:03;2.10;;;1.15;;
63492;SDS011;49638;47.526;10.028;2023-08-06T17:45:04;1.55;;;1.40;;
63492;SDS011;49638;47.526;10.028;2023-08-06T17:48:04;1.77;;;1.40;;
63492;SDS011;49638;47.526;10.028;2023-08-06T17:51:05;6.03;;;3.35;;
63492;SDS011;49638;47.526;10.028;2023-08-06T17:54:05;16.40;;;7.22;;
63492;SDS011;49638;47.526;10.028;2023-08-06T17:57:05;3.78;;;1.80;;
63492;SDS011;49638;47.526;10.028;2023-08-06T18:00:06;1.70;;;1.48;;
63492;SDS011;49638;47.526;10.028;2023-08-06T18:03:07;2.20;;;1.40;;
63492;SDS011;49638;47.526;10.028;2023-08-06T18:06:07;1.77;;;1.15;;
63492;SDS011;49638;47.526;10.028;2023-08-06T18:09:07;3.13;;;1.52;;
63492;SDS011;49638;47.526;10.028;2023-08-06T18:12:08;5.70;;;1.90;;
63492;SDS011;49638;47.526;10.028;2023-08-06T18:15:11;2.40;;;1.40;;